createdAt,value
2023-05-14T00:02:48.050Z,56.54
2023-05-14T00:05:50.860Z,56.19
2023-05-14T00:08:53.115Z,56.13
2023-05-14T00:11:55.423Z,56.22
2023-05-14T00:14:57.782Z,55.91
2023-05-14T00:18:00.319Z,55.71
2023-05-14T00:21:02.488Z,55.94
2023-05-14T00:24:05.006Z,55.93
2023-05-14T00:27:07.365Z,55.63
2023-05-14T00:30:09.866Z,56.33
2023-05-14T00:33:12.190Z,55.98
2023-05-14T00:36:14.388Z,55.47
2023-05-14T00:39:16.554Z,55.33
2023-05-14T00:42:18.692Z,56.15
2023-05-14T00:45:20.978Z,55.83
2023-05-14T00:48:23.682Z,55.75
2023-05-14T00:51:25.955Z,55.46
2023-05-14T00:54:28.331Z,55.81
2023-05-14T00:57:30.642Z,55.48
2023-05-14T01:00:33.029Z,55.69
2023-05-14T01:03:36.023Z,55.30
2023-05-14T01:06:47.221Z,55.42
2023-05-14T01:10:19.879Z,55.53
2023-05-14T01:13:44.530Z,55.61
2023-05-14T01:16:52.507Z,55.64
2023-05-14T01:19:55.326Z,55.72
2023-05-14T01:22:57.511Z,55.92
2023-05-14T01:25:59.670Z,56.36
2023-05-14T01:29:24.005Z,56.17
2023-05-14T01:32:26.909Z,56.20
2023-05-14T01:35:30.124Z,56.74
2023-05-14T01:38:34.121Z,56.67
2023-05-14T01:41:37.440Z,56.64
2023-05-14T01:44:39.691Z,56.93
2023-05-14T01:47:42.086Z,56.77
2023-05-14T01:50:44.302Z,56.77
2023-05-14T01:53:46.516Z,56.82
2023-05-14T01:56:48.628Z,56.55
2023-05-14T01:59:50.721Z,56.63
2023-05-14T02:02:52.921Z,57.27
2023-05-14T02:05:55.167Z,56.75
2023-05-14T02:08:57.368Z,56.79
2023-05-14T02:11:59.546Z,56.67
2023-05-14T02:15:03.132Z,56.44
2023-05-14T02:18:05.494Z,56.67
2023-05-14T02:21:07.677Z,56.57
2023-05-14T02:24:09.886Z,56.34
2023-05-14T02:27:13.264Z,56.66
2023-05-14T02:30:15.504Z,56.40
2023-05-14T02:33:17.877Z,55.88
2023-05-14T02:36:20.065Z,56.17
2023-05-14T02:39:22.444Z,56.04
2023-05-14T02:42:24.607Z,56.12
2023-05-14T02:45:27.108Z,56.11
2023-05-14T02:48:29.444Z,56.33
2023-05-14T02:51:31.656Z,56.23
2023-05-14T02:54:33.934Z,56.19
2023-05-14T02:57:36.144Z,56.10
2023-05-14T03:00:38.290Z,56.22
2023-05-14T03:03:40.962Z,56.32
2023-05-14T03:06:43.479Z,55.77
2023-05-14T03:09:45.685Z,56.03
2023-05-14T03:12:47.847Z,56.18
2023-05-14T03:15:54.695Z,56.00
2023-05-14T03:18:57.085Z,55.58
2023-05-14T03:21:59.402Z,55.66
2023-05-14T03:25:01.529Z,56.17
2023-05-14T03:28:04.101Z,55.64
2023-05-14T03:31:06.391Z,55.80
2023-05-14T03:34:08.616Z,55.73
2023-05-14T03:37:11.208Z,55.92
2023-05-14T03:40:13.375Z,55.33
2023-05-14T03:43:16.302Z,55.59
2023-05-14T03:46:19.285Z,55.30
2023-05-14T03:49:21.707Z,55.56
2023-05-14T03:52:23.959Z,55.45
2023-05-14T03:55:26.281Z,54.92
2023-05-14T03:58:28.448Z,55.36
2023-05-14T04:01:30.639Z,55.43
2023-05-14T04:04:33.735Z,55.00
2023-05-14T04:07:37.730Z,55.22
2023-05-14T04:10:39.987Z,55.04
2023-05-14T04:13:42.180Z,55.24
2023-05-14T04:16:45.413Z,54.88
2023-05-14T04:19:47.712Z,54.99
2023-05-14T04:22:49.898Z,54.82
2023-05-14T04:25:52.068Z,54.98
2023-05-14T04:28:54.308Z,54.75
2023-05-14T04:31:56.484Z,54.63
2023-05-14T04:34:58.615Z,54.74
2023-05-14T04:38:00.895Z,54.70
2023-05-14T04:41:03.035Z,54.62
2023-05-14T04:44:07.674Z,54.85
2023-05-14T04:47:09.815Z,55.02
2023-05-14T04:50:13.268Z,54.73
2023-05-14T04:53:15.449Z,54.78
2023-05-14T04:56:17.587Z,54.94
2023-05-14T04:59:19.724Z,54.54
2023-05-14T05:02:21.851Z,54.79
2023-05-14T05:05:24.039Z,54.75
2023-05-14T05:08:26.376Z,54.56
2023-05-14T05:11:28.556Z,54.65
2023-05-14T05:14:30.786Z,54.74
2023-05-14T05:17:33.028Z,54.16
2023-05-14T05:20:35.221Z,54.55
2023-05-14T05:23:37.363Z,54.33
2023-05-14T05:26:39.474Z,54.67
2023-05-14T05:29:41.591Z,54.28
2023-05-14T05:32:44.024Z,54.18
2023-05-14T05:35:46.275Z,54.15
2023-05-14T05:38:48.429Z,54.02
2023-05-14T05:41:50.766Z,54.35
2023-05-14T05:44:52.888Z,54.44
2023-05-14T05:47:55.085Z,54.11
2023-05-14T05:50:57.464Z,53.89
2023-05-14T05:53:59.610Z,53.84
2023-05-14T05:57:01.754Z,54.00
2023-05-14T06:00:13.589Z,53.84
2023-05-14T06:03:15.935Z,54.01
2023-05-14T06:06:18.166Z,54.15
2023-05-14T06:09:20.873Z,54.30
2023-05-14T06:12:22.990Z,54.32
2023-05-14T06:15:25.103Z,54.06
2023-05-14T06:18:27.299Z,54.69
2023-05-14T06:21:29.632Z,54.71
2023-05-14T06:24:31.821Z,55.14
2023-05-14T06:27:34.022Z,55.49
2023-05-14T06:30:36.209Z,55.38
2023-05-14T06:33:38.350Z,55.77
2023-05-14T06:36:40.499Z,55.96
2023-05-14T06:39:50.077Z,55.54
2023-05-14T06:42:52.353Z,55.65
2023-05-14T06:45:55.257Z,55.77
2023-05-14T06:48:59.347Z,56.06
2023-05-14T06:52:02.098Z,56.47
2023-05-14T06:55:04.475Z,56.57
2023-05-14T06:58:07.507Z,55.77
2023-05-14T07:01:09.701Z,56.36
2023-05-14T07:04:12.134Z,56.44
2023-05-14T07:07:17.394Z,56.46
2023-05-14T07:10:19.565Z,56.21
2023-05-14T07:13:21.815Z,56.29
2023-05-14T07:16:23.945Z,55.89
2023-05-14T07:19:28.706Z,55.99
2023-05-14T07:22:30.895Z,55.52
2023-05-14T07:25:33.020Z,56.21
2023-05-14T07:28:35.350Z,56.26
2023-05-14T07:31:37.577Z,56.34
2023-05-14T07:34:39.932Z,56.41
2023-05-14T07:37:42.927Z,56.10
2023-05-14T07:40:45.124Z,56.51
2023-05-14T07:43:47.291Z,56.29
2023-05-14T07:46:49.547Z,56.14
2023-05-14T07:49:56.324Z,56.05
2023-05-14T07:52:58.555Z,56.36
2023-05-14T07:56:00.975Z,56.34
2023-05-14T07:59:03.163Z,56.42
2023-05-14T08:02:10.284Z,56.36
2023-05-14T08:05:12.631Z,57.07
2023-05-14T08:08:14.831Z,57.04
2023-05-14T08:11:17.047Z,57.76
2023-05-14T08:14:19.179Z,57.85
2023-05-14T08:17:21.393Z,59.00
2023-05-14T08:20:24.250Z,58.96
2023-05-14T08:23:26.856Z,58.64
2023-05-14T08:26:28.977Z,57.86
2023-05-14T08:29:31.359Z,58.31
2023-05-14T08:32:33.581Z,58.59
2023-05-14T08:35:35.713Z,58.80
2023-05-14T08:38:37.818Z,58.99
2023-05-14T08:41:40.369Z,59.16
2023-05-14T08:44:52.200Z,59.08
2023-05-14T08:47:55.888Z,59.18
2023-05-14T08:50:58.204Z,59.87
2023-05-14T08:54:02.533Z,59.16
2023-05-14T08:57:05.718Z,59.47
2023-05-14T09:00:08.550Z,59.76
2023-05-14T09:03:11.452Z,59.69
2023-05-14T09:06:14.423Z,60.18
2023-05-14T09:09:16.850Z,59.15
2023-05-14T09:12:19.378Z,59.87
2023-05-14T09:15:21.902Z,59.85
2023-05-14T09:18:24.038Z,59.91
2023-05-14T09:21:26.257Z,59.80
2023-05-14T09:24:29.491Z,60.08
2023-05-14T09:27:32.830Z,60.11
2023-05-14T09:30:36.945Z,59.58
2023-05-14T09:33:39.093Z,59.96
2023-05-14T09:36:41.521Z,60.20
2023-05-14T09:39:43.679Z,60.05
2023-05-14T09:42:46.307Z,60.29
2023-05-14T09:45:48.425Z,60.21
2023-05-14T09:48:50.578Z,59.95
2023-05-14T09:51:52.796Z,60.08
2023-05-14T09:54:55.053Z,60.58
2023-05-14T09:57:57.220Z,60.40
2023-05-14T10:01:01.723Z,60.48
2023-05-14T10:04:06.897Z,60.59
2023-05-14T10:07:09.369Z,60.34
2023-05-14T10:10:15.636Z,60.43
2023-05-14T10:13:21.340Z,61.03
2023-05-14T10:16:26.479Z,60.63
2023-05-14T10:19:33.426Z,60.70
2023-05-14T10:22:35.781Z,60.92
2023-05-14T10:25:38.085Z,61.15
2023-05-14T10:28:40.389Z,60.85
2023-05-14T10:31:55.378Z,61.33
2023-05-14T10:34:58.423Z,60.66
2023-05-14T10:38:00.793Z,60.17
2023-05-14T10:41:11.511Z,60.29
2023-05-14T10:44:14.158Z,60.45
2023-05-14T10:47:17.910Z,60.37
2023-05-14T10:50:20.611Z,60.36
2023-05-14T10:53:34.189Z,60.26
2023-05-14T10:56:36.872Z,60.86
2023-05-14T10:59:42.157Z,61.32
2023-05-14T11:02:45.044Z,61.30
2023-05-14T11:05:47.594Z,61.43
2023-05-14T11:08:51.244Z,61.01
2023-05-14T11:11:54.535Z,61.24
2023-05-14T11:14:58.153Z,61.19
2023-05-14T11:18:00.485Z,61.00
2023-05-14T11:21:03.100Z,61.32
2023-05-14T11:24:07.324Z,61.18
2023-05-14T11:27:10.222Z,61.34
2023-05-14T11:30:14.295Z,61.52
2023-05-14T11:33:17.353Z,61.90
2023-05-14T11:36:19.543Z,61.53
2023-05-14T11:39:21.666Z,61.89
2023-05-14T11:42:24.757Z,61.70
2023-05-14T11:45:27.454Z,61.99
2023-05-14T11:48:29.586Z,62.00
2023-05-14T11:51:31.969Z,62.22
2023-05-14T11:54:34.846Z,61.99
2023-05-14T11:57:37.353Z,61.95
2023-05-14T12:00:40.129Z,62.04
2023-05-14T12:03:42.525Z,62.89
2023-05-14T12:06:46.679Z,62.49
2023-05-14T12:09:49.779Z,62.06
2023-05-14T12:12:52.221Z,62.85
2023-05-14T12:15:59.051Z,62.64
2023-05-14T12:19:01.845Z,62.81
2023-05-14T12:22:04.282Z,62.68
2023-05-14T12:25:12.412Z,62.79
2023-05-14T12:28:18.168Z,63.19
2023-05-14T12:31:28.404Z,63.44
2023-05-14T12:34:30.593Z,63.94
2023-05-14T12:37:33.328Z,64.01
2023-05-14T12:40:36.496Z,64.54
2023-05-14T12:43:42.461Z,64.17
2023-05-14T12:46:44.732Z,64.38
2023-05-14T12:49:46.926Z,64.33
2023-05-14T12:52:49.163Z,64.92
2023-05-14T12:55:51.346Z,64.90
2023-05-14T12:58:55.271Z,65.22
2023-05-14T13:01:57.401Z,64.90
2023-05-14T13:05:02.571Z,65.48
2023-05-14T13:08:04.788Z,65.93
2023-05-14T13:11:06.923Z,65.70
2023-05-14T13:14:09.149Z,65.89
2023-05-14T13:17:11.357Z,65.92
2023-05-14T13:20:13.504Z,66.13
2023-05-14T13:23:15.718Z,65.75
2023-05-14T13:26:17.808Z,66.11
2023-05-14T13:29:20.036Z,66.17
2023-05-14T13:32:22.295Z,66.20
2023-05-14T13:35:24.792Z,66.25
2023-05-14T13:38:27.208Z,66.15
2023-05-14T13:41:30.056Z,66.46
2023-05-14T13:44:32.166Z,66.57
2023-05-14T13:47:34.440Z,66.84
2023-05-14T13:50:36.613Z,67.10
2023-05-14T13:53:38.787Z,67.18
2023-05-14T13:56:41.264Z,67.30
2023-05-14T13:59:43.500Z,67.06
2023-05-14T14:02:45.767Z,67.56
2023-05-14T14:05:51.646Z,67.61
2023-05-14T14:08:53.823Z,67.78
2023-05-14T14:11:56.012Z,67.38
2023-05-14T14:14:58.247Z,67.88
2023-05-14T14:18:00.575Z,68.36
2023-05-14T14:21:02.728Z,68.10
2023-05-14T14:24:05.603Z,68.35
2023-05-14T14:27:08.047Z,68.07
2023-05-14T14:30:16.890Z,67.92
2023-05-14T14:33:19.020Z,68.14
2023-05-14T14:36:21.241Z,68.10
2023-05-14T14:39:25.329Z,67.65
2023-05-14T14:42:27.465Z,67.92
2023-05-14T14:45:29.753Z,67.67
2023-05-14T14:48:39.898Z,68.19
2023-05-14T14:51:42.187Z,67.90
2023-05-14T14:54:44.375Z,67.92
2023-05-14T14:57:48.823Z,67.68
2023-05-14T15:00:54.612Z,67.47
2023-05-14T15:03:56.797Z,68.15
2023-05-14T15:06:59.191Z,68.02
2023-05-14T15:10:01.362Z,67.54
2023-05-14T15:13:04.928Z,67.52
2023-05-14T15:16:07.241Z,67.31
2023-05-14T15:19:09.469Z,67.60
2023-05-14T15:22:11.641Z,67.73
2023-05-14T15:25:13.861Z,67.59
2023-05-14T15:28:16.192Z,67.35
2023-05-14T15:31:18.505Z,67.53
2023-05-14T15:34:21.378Z,67.58
2023-05-14T15:37:26.839Z,67.40
2023-05-14T15:40:29.575Z,67.72
2023-05-14T15:43:31.836Z,67.94
2023-05-14T15:46:34.105Z,67.83
2023-05-14T15:49:36.431Z,67.67
2023-05-14T15:52:40.163Z,67.96
2023-05-14T15:55:42.389Z,67.82
2023-05-14T15:58:44.506Z,67.96
2023-05-14T16:01:46.791Z,68.25
2023-05-14T16:04:49.623Z,67.83
2023-05-14T16:07:52.203Z,67.87
2023-05-14T16:10:54.337Z,67.74
2023-05-14T16:13:56.662Z,67.98
2023-05-14T16:16:58.828Z,68.05
2023-05-14T16:20:01.167Z,68.31
2023-05-14T16:23:03.357Z,67.90
2023-05-14T16:26:05.945Z,68.14
2023-05-14T16:29:08.406Z,68.41
2023-05-14T16:32:10.699Z,67.89
2023-05-14T16:35:12.952Z,67.71
2023-05-14T16:38:15.140Z,67.72
2023-05-14T16:41:17.279Z,67.74
2023-05-14T16:44:19.446Z,67.97
2023-05-14T16:47:21.527Z,68.22
2023-05-14T16:50:23.708Z,68.03
2023-05-14T16:53:26.443Z,68.36
2023-05-14T16:56:29.381Z,68.62
2023-05-14T16:59:33.900Z,68.43
2023-05-14T17:02:36.187Z,68.62
2023-05-14T17:05:38.437Z,68.43
2023-05-14T17:08:40.745Z,68.19
2023-05-14T17:11:42.861Z,68.59
2023-05-14T17:14:45.123Z,68.48
2023-05-14T17:17:47.336Z,68.73
2023-05-14T17:20:49.581Z,68.38
2023-05-14T17:23:51.800Z,68.24
2023-05-14T17:26:54.001Z,68.27
2023-05-14T17:29:56.183Z,68.09
2023-05-14T17:32:58.534Z,68.67
2023-05-14T17:36:00.722Z,68.64
2023-05-14T17:39:02.899Z,68.63
2023-05-14T17:42:06.197Z,68.93
2023-05-14T17:45:08.695Z,68.97
2023-05-14T17:48:10.884Z,69.08
2023-05-14T17:51:13.035Z,69.11
2023-05-14T17:54:15.408Z,69.27
2023-05-14T17:57:20.513Z,68.96
2023-05-14T18:00:22.719Z,68.81
2023-05-14T18:03:24.970Z,68.90
2023-05-14T18:06:27.209Z,68.95
2023-05-14T18:09:29.322Z,68.68
2023-05-14T18:12:31.459Z,69.18
2023-05-14T18:15:33.663Z,68.91
2023-05-14T18:18:35.973Z,68.96
2023-05-14T18:21:38.558Z,68.57
2023-05-14T18:24:40.703Z,68.43
2023-05-14T18:27:44.539Z,68.53
2023-05-14T18:30:47.055Z,68.88
2023-05-14T18:33:49.552Z,68.95
2023-05-14T18:36:51.740Z,69.13
2023-05-14T18:39:54.791Z,68.86
2023-05-14T18:42:57.025Z,69.21
2023-05-14T18:45:59.591Z,69.20
2023-05-14T18:49:01.775Z,69.36
2023-05-14T18:52:04.195Z,69.74
2023-05-14T18:55:06.674Z,69.51
2023-05-14T18:58:08.855Z,69.15
2023-05-14T19:01:11.078Z,69.14
2023-05-14T19:04:13.224Z,69.18
2023-05-14T19:07:15.364Z,69.09
2023-05-14T19:10:17.576Z,69.48
2023-05-14T19:13:19.673Z,69.09
2023-05-14T19:16:22.174Z,69.08
2023-05-14T19:19:24.312Z,69.63
2023-05-14T19:22:26.496Z,69.38
2023-05-14T19:25:28.982Z,69.63
2023-05-14T19:28:31.349Z,69.63
2023-05-14T19:31:33.510Z,69.71
2023-05-14T19:34:36.113Z,69.83
2023-05-14T19:37:38.295Z,69.90
2023-05-14T19:40:42.972Z,69.61
2023-05-14T19:43:45.899Z,69.86
2023-05-14T19:46:48.812Z,69.57
2023-05-14T19:49:51.051Z,69.37
2023-05-14T19:52:53.228Z,69.88
2023-05-14T19:55:59.322Z,70.01
2023-05-14T19:59:01.434Z,69.97
2023-05-14T20:02:04.683Z,70.15
2023-05-14T20:05:09.081Z,70.27
2023-05-14T20:08:12.052Z,69.82
2023-05-14T20:11:15.709Z,69.82
2023-05-14T20:14:17.970Z,70.38
2023-05-14T20:17:23.487Z,70.47
2023-05-14T20:20:27.072Z,70.40
2023-05-14T20:23:30.579Z,70.75
2023-05-14T20:26:32.660Z,70.07
2023-05-14T20:29:34.806Z,70.55
2023-05-14T20:32:37.085Z,70.61
2023-05-14T20:35:40.832Z,70.13
2023-05-14T20:38:43.056Z,70.64
2023-05-14T20:41:45.761Z,70.85
2023-05-14T20:44:48.766Z,70.86
2023-05-14T20:47:50.959Z,70.84
2023-05-14T20:50:53.139Z,70.47
2023-05-14T20:53:55.302Z,70.88
2023-05-14T20:56:57.441Z,70.83
2023-05-14T20:59:59.594Z,70.79
2023-05-14T21:03:01.957Z,70.63
2023-05-14T21:06:04.355Z,70.78
2023-05-14T21:09:06.488Z,70.86
2023-05-14T21:12:09.049Z,70.72
2023-05-14T21:15:11.428Z,70.95
2023-05-14T21:18:13.591Z,70.64
2023-05-14T21:21:15.789Z,71.16
2023-05-14T21:24:18.981Z,70.51
2023-05-14T21:27:21.887Z,70.98
2023-05-14T21:30:24.133Z,71.30
2023-05-14T21:33:26.372Z,71.19
2023-05-14T21:36:28.617Z,70.94
2023-05-14T21:39:30.814Z,71.31
2023-05-14T21:42:32.914Z,71.16
2023-05-14T21:45:35.129Z,70.76
2023-05-14T21:48:37.390Z,71.02
2023-05-14T21:51:39.545Z,71.22
2023-05-14T21:54:41.725Z,71.25
2023-05-14T21:57:43.835Z,70.87
2023-05-14T22:00:45.972Z,71.33
2023-05-14T22:03:48.181Z,70.74
2023-05-14T22:06:50.508Z,71.28
2023-05-14T22:09:52.902Z,71.13
2023-05-14T22:12:55.047Z,71.23
2023-05-14T22:16:11.652Z,70.98
2023-05-14T22:19:16.396Z,70.88
2023-05-14T22:22:18.786Z,70.77
2023-05-14T22:25:20.914Z,70.76
2023-05-14T22:28:23.341Z,71.19
2023-05-14T22:31:25.598Z,70.94
2023-05-14T22:34:27.745Z,71.02
2023-05-14T22:37:29.818Z,70.57
2023-05-14T22:40:32.072Z,71.07
2023-05-14T22:43:34.272Z,70.84
2023-05-14T22:46:36.491Z,70.72
2023-05-14T22:49:40.003Z,70.80
2023-05-14T22:52:42.243Z,71.05
2023-05-14T22:55:44.389Z,70.91
2023-05-14T22:58:46.619Z,70.55
2023-05-14T23:01:48.811Z,70.96
2023-05-14T23:04:51.107Z,71.04
2023-05-14T23:07:53.487Z,71.46
2023-05-14T23:10:55.609Z,71.35
2023-05-14T23:13:57.786Z,70.95
2023-05-14T23:16:59.990Z,70.83
2023-05-14T23:20:02.201Z,70.90
2023-05-14T23:23:04.975Z,71.25
2023-05-14T23:26:07.135Z,70.87
2023-05-14T23:29:09.275Z,71.16
2023-05-14T23:32:11.378Z,71.04
2023-05-14T23:35:13.632Z,71.40
2023-05-14T23:38:16.074Z,71.26
2023-05-14T23:41:18.225Z,71.23
2023-05-14T23:44:20.389Z,71.40
2023-05-14T23:47:22.692Z,71.39
2023-05-14T23:50:25.383Z,71.15
2023-05-14T23:53:27.525Z,71.42
2023-05-14T23:56:29.717Z,71.19
2023-05-14T23:59:31.898Z,71.41
